Time;durP1;ratioP1;P1;durP2;ratioP2;P2;SDS_P1;SDS_P2;PMS_P1;PMS_P2;Temp;Humidity;BMP_temperature;BMP_pressure;BME280_temperature;BME280_humidity;BME280_pressure;Samples;Min_cycle;Max_cycle;Signal;HPM_P1;HPM_P2
2021/04/03 00:03:35;;;;;;;7.80;3.23;;;;;;;4.28;100.00;98591.64;3760115;79;44079;-26
2021/04/03 00:08:41;;;;;;;5.92;3.35;;;;;;;4.28;100.00;98584.50;3760159;79;43990;-25
2021/04/03 00:13:47;;;;;;;6.85;3.37;;;;;;;4.29;100.00;98582.67;3760018;79;43305;-26
2021/04/03 00:18:53;;;;;;;9.90;3.37;;;;;;;4.25;100.00;98579.39;3759599;78;43757;-26
2021/04/03 00:24:00;;;;;;;11.17;3.30;;;;;;;4.15;100.00;98570.40;3760168;78;43590;-23
2021/04/03 00:29:06;;;;;;;6.20;3.30;;;;;;;4.08;100.00;98575.34;3759706;77;69067;-24
2021/04/03 00:34:12;;;;;;;9.57;3.40;;;;;;;4.07;100.00;98566.11;3759872;77;44178;-25
2021/04/03 00:39:17;;;;;;;7.37;3.13;;;;;;;4.01;100.00;98567.42;3756095;79;44076;-25
2021/04/03 00:44:23;;;;;;;7.13;3.10;;;;;;;3.95;100.00;98559.41;3760496;77;43318;-24
2021/04/03 00:49:29;;;;;;;9.57;3.27;;;;;;;3.87;100.00;98560.48;3759267;77;43709;-25
2021/04/03 00:54:36;;;;;;;7.67;3.10;;;;;;;3.83;100.00;98566.53;3759417;77;43918;-25
2021/04/03 00:59:42;;;;;;;6.37;3.10;;;;;;;3.85;100.00;98558.41;3755266;77;43964;-25
2021/04/03 01:04:49;;;;;;;7.23;3.50;;;;;;;3.85;100.00;98557.08;3730126;78;43036;-25
2021/04/03 01:09:55;;;;;;;5.33;3.20;;;;;;;3.81;100.00;98563.13;3735149;78;43988;-25
2021/04/03 01:15:09;;;;;;;7.67;3.50;;;;;;;3.81;100.00;98562.29;3735685;79;43998;-24
2021/04/03 01:20:28;;;;;;;7.55;3.50;;;;;;;3.83;100.00;98566.53;3736217;79;44011;-24
2021/04/03 01:25:39;;;;;;;9.80;3.47;;;;;;;3.87;100.00;98564.98;3733593;79;43722;-23
2021/04/03 01:30:49;;;;;;;7.87;3.47;;;;;;;3.84;100.00;98562.03;3736311;79;44016;-25
2021/04/03 01:35:59;;;;;;;11.33;3.73;;;;;;;3.84;100.00;98566.90;3730562;78;43678;-25
2021/04/03 01:41:06;;;;;;;10.00;4.10;;;;;;;3.79;100.00;98573.05;3740088;78;43673;-23
2021/04/03 01:46:17;;;;;;;12.20;4.20;;;;;;;3.83;100.00;98570.99;3735798;78;26770;-24
2021/04/03 01:51:25;;;;;;;10.60;4.10;;;;;;;3.83;100.00;98578.98;3741754;78;44015;-26
2021/04/03 01:56:32;;;;;;;11.50;4.73;;;;;;;3.85;100.00;98565.07;3735889;78;43508;-21
2021/04/03 02:01:40;;;;;;;13.65;5.08;;;;;;;3.83;100.00;98569.66;3734765;79;75423;-21
2021/04/03 02:06:49;;;;;;;11.57;5.22;;;;;;;3.84;100.00;98560.23;3735728;78;73308;-20
2021/04/03 02:11:59;;;;;;;14.18;5.42;;;;;;;3.82;100.00;98567.49;3733093;78;26348;-21
2021/04/03 02:17:21;;;;;;;12.82;5.92;;;;;;;3.78;100.00;98567.34;3722551;78;26438;-21
2021/04/03 02:22:29;;;;;;;20.13;5.40;;;;;;;3.81;100.00;98560.95;3734870;78;26706;-21
2021/04/03 02:27:38;;;;;;;16.43;5.43;;;;;;;3.79;100.00;98566.38;3735112;78;27443;-22
2021/04/03 02:32:47;;;;;;;10.87;5.00;;;;;;;3.82;100.00;98573.31;3736052;79;43963;-22
2021/04/03 02:37:57;;;;;;;12.67;5.63;;;;;;;3.80;100.00;98576.58;3732977;79;43669;-21
2021/04/03 02:43:07;;;;;;;14.43;6.77;;;;;;;3.83;100.00;98581.19;3733969;79;43674;-22
2021/04/03 02:48:18;;;;;;;23.40;6.73;;;;;;;3.84;100.00;98590.02;3734678;78;75309;-22
2021/04/03 02:53:29;;;;;;;18.77;5.90;;;;;;;3.79;100.00;98590.37;3735015;78;43370;-22
2021/04/03 02:58:38;;;;;;;16.43;6.53;;;;;;;3.73;100.00;98601.95;3733027;78;26453;-22
2021/04/03 03:03:50;;;;;;;12.97;6.23;;;;;;;3.69;100.00;98614.20;3741806;77;26420;-22
2021/04/03 03:08:59;;;;;;;16.17;5.63;;;;;;;3.58;100.00;98610.14;3748027;79;43401;-23
2021/04/03 03:14:06;;;;;;;15.27;6.90;;;;;;;3.48;100.00;98606.42;3742861;79;44178;-23
2021/04/03 03:19:15;;;;;;;14.23;5.83;;;;;;;3.42;100.00;98617.53;3755660;77;43674;-21
2021/04/03 03:24:22;;;;;;;13.60;5.83;;;;;;;3.44;100.00;98624.94;3759351;77;43693;-21
2021/04/03 03:29:29;;;;;;;12.43;5.70;;;;;;;3.44;100.00;98625.77;3758741;77;43316;-21
2021/04/03 03:34:36;;;;;;;13.30;5.63;;;;;;;3.43;100.00;98632.55;3759300;79;44402;-21
2021/04/03 03:39:43;;;;;;;18.27;6.30;;;;;;;3.44;100.00;98633.77;3759865;78;43350;-24
2021/04/03 03:44:51;;;;;;;15.53;5.90;;;;;;;3.46;100.00;98641.66;3759009;79;43596;-21
2021/04/03 03:49:58;;;;;;;14.37;5.77;;;;;;;3.47;100.00;98650.03;3759961;79;44445;-23
2021/04/03 03:55:07;;;;;;;15.63;5.57;;;;;;;3.50;100.00;98644.45;3757338;77;75752;-23
2021/04/03 04:00:16;;;;;;;19.87;5.57;;;;;;;3.49;100.00;98649.41;3759418;77;43396;-23
2021/04/03 04:05:21;;;;;;;11.50;4.30;;;;;;;3.41;100.00;98651.78;3755174;79;44289;-23
2021/04/03 04:10:29;;;;;;;10.90;4.83;;;;;;;3.32;100.00;98651.95;3756444;79;26400;-23
2021/04/03 04:15:35;;;;;;;9.87;4.17;;;;;;;3.22;100.00;98662.43;3759647;79;43421;-22
2021/04/03 04:20:42;;;;;;;12.03;4.90;;;;;;;3.20;100.00;98674.50;3760518;79;43424;-23
2021/04/03 04:25:50;;;;;;;15.30;5.17;;;;;;;3.16;100.00;98679.69;3759074;79;26363;-23
2021/04/03 04:30:58;;;;;;;13.03;4.23;;;;;;;3.22;100.00;98681.06;3759253;77;43677;-22
2021/04/03 04:36:05;;;;;;;14.37;4.40;;;;;;;3.26;100.00;98687.02;3759038;77;43591;-23
2021/04/03 04:41:11;;;;;;;13.20;4.43;;;;;;;3.21;100.00;98682.86;3758982;79;44766;-23
2021/04/03 04:46:21;;;;;;;9.63;4.53;;;;;;;3.15;100.00;98689.09;3757018;79;44007;-22
2021/04/03 04:51:29;;;;;;;12.00;4.23;;;;;;;3.11;100.00;98693.79;3759141;78;71279;-23
2021/04/03 04:56:37;;;;;;;13.30;5.30;;;;;;;3.11;100.00;98701.78;3758147;77;75677;-23
2021/04/03 05:01:44;;;;;;;12.07;4.90;;;;;;;3.13;100.00;98703.86;3751346;78;44714;-23
2021/04/03 05:06:51;;;;;;;14.40;5.60;;;;;;;3.12;100.00;98706.64;3735196;78;44164;-23
2021/04/03 05:11:57;;;;;;;12.50;4.53;;;;;;;3.13;100.00;98707.85;3733855;78;42925;-23
2021/04/03 05:17:03;;;;;;;14.43;4.93;;;;;;;3.06;100.00;98714.54;3735793;79;43660;-24
2021/04/03 05:22:09;;;;;;;17.47;5.80;;;;;;;3.05;100.00;98719.52;3735738;78;43704;-21
2021/04/03 05:27:17;;;;;;;13.13;5.80;;;;;;;3.04;100.00;98731.96;3735444;78;44464;-24
2021/04/03 05:32:23;;;;;;;14.20;5.00;;;;;;;3.08;100.00;98732.13;3734776;79;44039;-24
2021/04/03 05:37:29;;;;;;;20.77;6.03;;;;;;;3.10;100.00;98733.34;3736616;78;43139;-24
2021/04/03 05:42:36;;;;;;;13.07;4.73;;;;;;;3.07;100.00;98726.44;3734788;78;44047;-24
2021/04/03 05:47:42;;;;;;;9.87;4.33;;;;;;;3.01;100.00;98739.31;3735166;78;44044;-23
2021/04/03 05:52:48;;;;;;;12.80;4.20;;;;;;;2.95;100.00;98744.58;3735191;79;43591;-23
2021/04/03 05:57:54;;;;;;;13.80;5.00;;;;;;;2.88;100.00;98755.28;3731914;79;43682;-24
2021/04/03 06:03:01;;;;;;;12.47;4.70;;;;;;;2.85;100.00;98760.80;3746657;78;43398;-23
2021/04/03 06:08:08;;;;;;;13.23;4.90;;;;;;;2.90;100.00;98761.33;3760753;77;42952;-23
2021/04/03 06:13:19;;;;;;;9.00;4.73;;;;;;;2.91;100.00;98761.24;3758513;77;44602;-23
2021/04/03 06:18:25;;;;;;;15.63;4.73;;;;;;;2.89;100.00;98771.13;3759586;77;43113;-23
2021/04/03 06:23:33;;;;;;;11.97;4.50;;;;;;;2.94;100.00;98773.48;3759167;77;44521;-23
2021/04/03 06:28:39;;;;;;;11.73;4.50;;;;;;;2.83;100.00;98774.19;3754557;77;44133;-23
2021/04/03 06:33:45;;;;;;;13.30;4.97;;;;;;;2.87;100.00;98779.69;3759839;79;44073;-22
2021/04/03 06:38:59;;;;;;;16.93;5.83;;;;;;;2.97;100.00;98799.89;3758661;79;44005;-22
2021/04/03 06:44:07;;;;;;;15.90;6.03;;;;;;;3.04;100.00;98809.16;3759109;77;44121;-23
2021/04/03 06:49:15;;;;;;;12.17;4.80;;;;;;;3.16;100.00;98811.48;3758871;77;43707;-23
2021/04/03 06:54:21;;;;;;;13.83;5.23;;;;;;;3.20;100.00;98816.11;3759924;77;43681;-24
2021/04/03 06:59:28;;;;;;;16.43;5.50;;;;;;;3.17;100.00;98816.31;3760979;79;44409;-24
2021/04/03 07:04:39;;;;;;;13.33;6.07;;;;;;;3.24;100.00;98822.91;3751607;78;43492;-24
2021/04/03 07:09:46;;;;;;;19.43;5.63;;;;;;;3.35;100.00;98824.36;3742746;79;43198;-22
2021/04/03 07:14:53;;;;;;;18.40;5.20;;;;;;;3.37;100.00;98843.75;3742390;77;44041;-24
2021/04/03 07:19:59;;;;;;;15.67;5.73;;;;;;;3.37;100.00;98849.08;3749764;79;44187;-23
2021/04/03 07:25:10;;;;;;;15.43;5.87;;;;;;;3.38;100.00;98848.13;3760228;77;44061;-23
2021/04/03 07:30:38;;;;;;;14.20;6.20;;;;;;;3.45;100.00;98857.89;3761788;77;44475;-23
2021/04/03 07:35:49;;;;;;;13.60;5.80;;;;;;;3.46;100.00;98874.24;3761811;79;43505;-23
2021/04/03 07:41:06;;;;;;;12.30;5.33;;;;;;;3.47;100.00;98876.45;3746237;77;76339;-23
2021/04/03 07:46:16;;;;;;;14.40;5.63;;;;;;;3.49;100.00;98878.50;3724004;77;43673;-24
2021/04/03 07:51:48;;;;;;;14.20;5.73;;;;;;;3.45;100.00;98885.02;3747803;79;43326;-24
2021/04/03 07:56:57;;;;;;;12.33;5.50;;;;;;;3.51;100.00;98887.24;3751027;77;44497;-24
2021/04/03 08:02:05;;;;;;;18.40;6.13;;;;;;;3.52;100.00;98899.15;3745207;77;44018;-22
2021/04/03 08:07:11;;;;;;;13.47;5.73;;;;;;;3.52;100.00;98901.81;3747051;79;44089;-23
2021/04/03 08:12:19;;;;;;;16.40;5.73;;;;;;;3.55;100.00;98916.72;3747928;79;44038;-23
2021/04/03 08:17:26;;;;;;;14.97;5.83;;;;;;;3.55;100.00;98926.89;3748234;79;43800;-22
2021/04/03 08:22:34;;;;;;;16.03;5.70;;;;;;;3.66;100.00;98918.64;3749419;79;44019;-23
2021/04/03 08:27:41;;;;;;;13.33;6.70;;;;;;;3.84;100.00;98919.19;3753016;79;43192;-23
2021/04/03 08:33:05;;;;;;;13.17;5.97;;;;;;;4.40;100.00;98917.49;3760924;77;43675;-23
2021/04/03 08:38:20;;;;;;;14.33;5.70;;;;;;;4.56;100.00;98919.06;3758622;77;43686;-23
2021/04/03 08:43:28;;;;;;;15.30;5.87;;;;;;;4.70;100.00;98918.06;3761066;79;43488;-23
2021/04/03 08:48:36;;;;;;;13.68;6.22;;;;;;;5.06;100.00;98923.83;3760587;79;43681;-23
2021/04/03 08:53:45;;;;;;;16.53;5.83;;;;;;;5.22;100.00;98916.89;3761370;79;44359;-25
2021/04/03 08:58:53;;;;;;;13.60;6.20;;;;;;;4.91;100.00;98940.52;3758836;79;43418;-23
2021/04/03 09:04:02;;;;;;;10.13;5.97;;;;;;;5.11;100.00;98944.02;3760970;77;43306;-23
2021/04/03 09:09:11;;;;;;;10.30;5.70;;;;;;;5.36;100.00;98936.35;3760927;77;43995;-23
2021/04/03 09:14:26;;;;;;;12.28;6.08;;;;;;;5.61;100.00;98946.52;3760968;79;44065;-23
2021/04/03 09:19:35;;;;;;;12.03;6.05;;;;;;;5.82;100.00;98932.84;3759854;79;44726;-23
2021/04/03 09:24:44;;;;;;;11.50;5.22;;;;;;;5.71;100.00;98943.52;3762009;79;44039;-23
2021/04/03 09:29:53;;;;;;;10.93;5.83;;;;;;;6.06;100.00;98932.44;3761071;79;73364;-23
2021/04/03 09:35:06;;;;;;;12.77;4.67;;;;;;;6.34;100.00;98931.12;3756176;79;43182;-24
2021/04/03 09:40:14;;;;;;;5.55;3.80;;;;;;;6.57;99.19;98931.11;3762428;77;43529;-23
2021/04/03 09:45:20;;;;;;;6.05;3.20;;;;;;;6.71;79.27;98936.20;3760166;77;43210;-22
2021/04/03 09:50:27;;;;;;;5.53;2.72;;;;;;;6.59;67.12;98943.38;3754765;77;44144;-23
2021/04/03 09:55:33;;;;;;;5.67;2.40;;;;;;;6.69;66.15;98930.62;3749887;77;44020;-23
2021/04/03 10:00:39;;;;;;;4.97;2.70;;;;;;;7.05;61.54;98927.25;3752565;79;44470;-23
2021/04/03 10:05:45;;;;;;;4.63;2.07;;;;;;;7.36;54.56;98923.36;3743019;78;44508;-23
2021/04/03 10:10:51;;;;;;;2.83;1.70;;;;;;;7.69;59.39;98927.72;3726299;78;44813;-23
2021/04/03 10:15:57;;;;;;;3.40;1.52;;;;;;;7.47;56.87;98934.50;3735157;78;44104;-23
2021/04/03 10:21:03;;;;;;;3.53;1.20;;;;;;;7.65;55.18;98927.61;3737051;78;43390;-23
2021/04/03 10:26:09;;;;;;;2.02;1.00;;;;;;;7.39;49.46;98941.37;3734624;79;43361;-22
2021/04/03 10:31:17;;;;;;;2.17;1.00;;;;;;;7.69;48.54;98937.11;3737606;78;43571;-23
2021/04/03 10:36:23;;;;;;;4.40;1.37;;;;;;;7.71;45.12;98935.12;3737141;79;43285;-24
2021/04/03 10:41:28;;;;;;;4.17;1.07;;;;;;;7.85;46.75;98930.41;3738179;78;43410;-23
2021/04/03 10:46:35;;;;;;;3.75;1.27;;;;;;;7.63;43.53;98926.87;3736765;79;44695;-25
2021/04/03 10:51:40;;;;;;;3.95;1.42;;;;;;;7.57;43.76;98927.41;3736271;78;43653;-23
2021/04/03 10:56:47;;;;;;;4.15;1.07;;;;;;;8.10;45.70;98933.67;3736353;79;44128;-25
2021/04/03 11:01:52;;;;;;;3.87;1.20;;;;;;;7.91;44.94;98929.90;3731725;79;73120;-25
2021/04/03 11:06:58;;;;;;;2.12;1.00;;;;;;;7.86;47.21;98919.56;3763856;78;43145;-25
2021/04/03 11:12:06;;;;;;;2.22;0.95;;;;;;;7.97;47.70;98921.81;3786962;77;43575;-23
2021/04/03 11:17:13;;;;;;;1.92;1.20;;;;;;;8.21;44.03;98920.67;3783990;78;44088;-23
2021/04/03 11:22:19;;;;;;;1.45;0.93;;;;;;;8.08;43.44;98922.21;3785348;77;44041;-22
2021/04/03 11:27:24;;;;;;;1.82;1.17;;;;;;;7.78;43.26;98931.92;3786485;77;43457;-23
2021/04/03 11:32:31;;;;;;;2.70;1.57;;;;;;;8.24;44.16;98905.14;3782798;78;44530;-23
2021/04/03 11:37:38;;;;;;;1.82;1.10;;;;;;;8.13;43.20;98911.43;3787008;78;43636;-23
2021/04/03 11:42:47;;;;;;;2.20;1.00;;;;;;;8.18;43.79;98911.03;3786905;78;43990;-23
2021/04/03 11:47:53;;;;;;;5.25;1.25;;;;;;;8.05;41.98;98917.13;3786614;78;44026;-25
2021/04/03 11:53:00;;;;;;;3.05;1.27;;;;;;;8.06;41.74;98918.80;3787117;78;43442;-22
2021/04/03 11:58:07;;;;;;;1.72;1.00;;;;;;;8.39;40.98;98910.16;3783177;77;44457;-24
2021/04/03 12:03:12;;;;;;;2.20;1.00;;;;;;;8.53;43.06;98905.77;3786439;77;43641;-24
2021/04/03 12:08:18;;;;;;;2.27;1.02;;;;;;;8.39;40.85;98916.87;3748621;78;44059;-23
2021/04/03 12:13:26;;;;;;;2.85;1.60;;;;;;;8.43;42.40;98908.40;3736490;79;44075;-23
2021/04/03 12:18:32;;;;;;;3.67;1.15;;;;;;;8.58;42.51;98893.30;3739062;79;43478;-25
2021/04/03 12:23:38;;;;;;;3.00;1.22;;;;;;;8.87;42.71;98903.24;3738771;79;43689;-25
2021/04/03 12:28:44;;;;;;;4.78;1.40;;;;;;;8.65;44.23;98887.72;3737134;79;43101;-24
2021/04/03 12:33:50;;;;;;;2.35;1.40;;;;;;;8.46;41.69;98885.31;3738831;78;43185;-23
2021/04/03 12:38:56;;;;;;;3.25;1.30;;;;;;;8.43;41.43;98892.77;3738581;78;43308;-24
2021/04/03 12:44:03;;;;;;;3.50;2.75;;;;;;;8.69;44.45;98884.26;3738763;79;43354;-23
2021/04/03 12:49:09;;;;;;;3.12;1.72;;;;;;;9.22;43.47;98878.55;3739021;79;44215;-23
2021/04/03 12:54:15;;;;;;;4.17;2.50;;;;;;;9.24;44.24;98878.39;3739240;79;43378;-23
2021/04/03 12:59:22;;;;;;;3.75;1.70;;;;;;;8.71;41.97;98888.50;3738524;79;44259;-23
2021/04/03 13:04:30;;;;;;;3.75;1.77;;;;;;;9.06;42.78;98875.55;3735160;79;44039;-23
2021/04/03 13:09:36;;;;;;;3.42;1.72;;;;;;;8.82;41.53;98876.80;3761118;77;44881;-23
2021/04/03 13:14:42;;;;;;;5.50;2.05;;;;;;;9.26;42.70;98880.45;3762834;77;43686;-23
2021/04/03 13:19:48;;;;;;;3.55;2.10;;;;;;;8.97;42.81;98882.61;3762682;79;44035;-23
2021/04/03 13:24:53;;;;;;;5.03;1.85;;;;;;;8.81;44.75;98876.44;3763368;79;42658;-23
2021/04/03 13:30:00;;;;;;;3.35;1.60;;;;;;;9.53;45.81;98866.27;3762982;79;44046;-23
2021/04/03 13:35:08;;;;;;;3.33;1.40;;;;;;;9.65;42.32;98852.66;3762352;79;43750;-23
2021/04/03 13:40:16;;;;;;;4.47;1.57;;;;;;;9.64;43.68;98867.09;3762109;77;43413;-22
2021/04/03 13:45:22;;;;;;;2.27;1.22;;;;;;;9.97;41.05;98862.20;3761511;77;44310;-22
2021/04/03 13:50:28;;;;;;;4.22;1.40;;;;;;;9.93;41.39;98857.61;3763136;79;43085;-22
2021/04/03 13:55:34;;;;;;;2.72;1.35;;;;;;;9.77;41.88;98855.53;3762964;79;43478;-22
2021/04/03 14:00:39;;;;;;;4.85;1.35;;;;;;;9.44;41.26;98851.48;3762813;78;43318;-23
2021/04/03 14:05:46;;;;;;;2.98;1.20;;;;;;;9.66;43.67;98848.47;3763085;78;43684;-22
2021/04/03 14:10:51;;;;;;;2.60;1.20;;;;;;;9.63;41.46;98854.64;3763704;79;43729;-22
2021/04/03 14:16:00;;;;;;;2.25;0.90;;;;;;;9.64;42.32;98865.75;3762456;77;44020;-24
2021/04/03 14:21:07;;;;;;;2.15;0.90;;;;;;;9.70;40.48;98852.57;3762923;77;43576;-24
2021/04/03 14:26:15;;;;;;;3.08;1.05;;;;;;;9.92;38.83;98869.37;3757806;79;44037;-21
2021/04/03 14:31:21;;;;;;;2.27;0.90;;;;;;;9.37;38.27;98857.44;3762897;79;43402;-22
2021/04/03 14:36:27;;;;;;;2.37;1.00;;;;;;;9.56;39.03;98850.33;3762350;77;44018;-23
2021/04/03 14:41:33;;;;;;;2.30;1.00;;;;;;;9.81;39.22;98842.15;3761504;79;43996;-23
2021/04/03 14:46:39;;;;;;;3.55;1.17;;;;;;;9.83;38.39;98834.75;3762011;77;43736;-23
2021/04/03 14:51:45;;;;;;;2.62;1.02;;;;;;;10.73;38.97;98830.19;3761346;77;43607;-23
2021/04/03 14:56:52;;;;;;;2.12;0.98;;;;;;;10.38;36.20;98819.70;3760831;77;43428;-23
2021/04/03 15:01:58;;;;;;;1.67;1.10;;;;;;;10.75;39.52;98828.19;3758229;77;43982;-22
2021/04/03 15:07:05;;;;;;;2.33;0.90;;;;;;;10.33;35.85;98849.74;3760806;78;42798;-22
2021/04/03 15:12:12;;;;;;;3.77;1.20;;;;;;;9.55;36.17;98847.28;3762403;79;43356;-22
2021/04/03 15:17:19;;;;;;;1.47;1.00;;;;;;;10.12;35.02;98843.23;3763097;79;44109;-23
2021/04/03 15:22:25;;;;;;;4.25;0.90;;;;;;;10.05;34.49;98823.30;3763318;79;44058;-23
2021/04/03 15:27:31;;;;;;;3.70;1.20;;;;;;;10.20;34.33;98860.00;3758994;77;43722;-24
2021/04/03 15:32:37;;;;;;;3.37;0.95;;;;;;;10.53;36.19;98823.20;3758893;78;43696;-23
2021/04/03 15:37:43;;;;;;;1.92;1.12;;;;;;;10.20;34.53;98830.86;3760968;77;43895;-23
2021/04/03 15:42:49;;;;;;;0.90;0.85;;;;;;;10.73;36.24;98827.48;3761856;79;44743;-23
2021/04/03 15:47:55;;;;;;;1.77;1.10;;;;;;;10.91;35.68;98819.90;3760690;77;43171;-24
2021/04/03 15:53:01;;;;;;;1.60;0.93;;;;;;;10.95;34.75;98826.69;3753591;77;44073;-22
2021/04/03 15:58:08;;;;;;;2.83;1.00;;;;;;;10.66;35.27;98830.94;3749511;77;43426;-24
2021/04/03 16:03:15;;;;;;;1.72;0.90;;;;;;;10.74;35.03;98833.71;3754701;77;44032;-22
2021/04/03 16:08:21;;;;;;;2.83;1.00;;;;;;;10.56;34.83;98821.56;3752930;77;44073;-22
2021/04/03 16:13:27;;;;;;;0.82;0.80;;;;;;;10.76;36.81;98827.67;3756666;77;44073;-23
2021/04/03 16:18:35;;;;;;;2.02;1.00;;;;;;;10.95;36.22;98834.78;3761148;77;43689;-22
2021/04/03 16:23:41;;;;;;;2.77;0.88;;;;;;;10.60;35.01;98820.27;3760967;77;43490;-22
2021/04/03 16:28:47;;;;;;;2.08;0.98;;;;;;;9.63;36.04;98827.73;3759331;77;42637;-23
2021/04/03 16:33:54;;;;;;;0.90;0.80;;;;;;;9.39;36.86;98827.70;3760620;77;44078;-23
2021/04/03 16:39:00;;;;;;;2.10;0.98;;;;;;;9.32;37.79;98829.28;3755665;77;43722;-23
2021/04/03 16:44:06;;;;;;;1.82;1.10;;;;;;;9.03;37.65;98840.88;3757834;77;43995;-23
2021/04/03 16:49:12;;;;;;;2.27;0.95;;;;;;;9.51;39.51;98829.76;3762517;77;43389;-23
2021/04/03 16:54:18;;;;;;;2.20;0.98;;;;;;;9.55;38.23;98821.25;3762269;79;43318;-23
2021/04/03 16:59:27;;;;;;;1.82;1.00;;;;;;;9.85;39.64;98824.70;3763778;79;43370;-23
2021/04/03 17:04:33;;;;;;;0.90;0.82;;;;;;;9.63;36.96;98834.45;3757460;79;43364;-23
2021/04/03 17:09:40;;;;;;;2.75;1.17;;;;;;;9.61;39.26;98820.30;3761986;77;43718;-23
2021/04/03 17:14:46;;;;;;;1.32;1.00;;;;;;;9.66;40.53;98827.45;3762796;77;44469;-22
2021/04/03 17:19:52;;;;;;;2.17;1.40;;;;;;;9.02;39.97;98832.46;3763623;79;44030;-24
2021/04/03 17:24:59;;;;;;;2.22;1.20;;;;;;;8.89;41.55;98841.65;3762461;79;43614;-22
2021/04/03 17:30:12;;;;;;;2.85;1.12;;;;;;;8.35;41.29;98847.80;3761735;79;43967;-22
2021/04/03 17:35:15;;;;;;;2.00;1.12;;;;;;;8.18;42.16;98858.69;3758226;79;44018;-22
2021/04/03 17:40:22;;;;;;;2.77;1.15;;;;;;;7.97;42.40;98858.77;3761476;79;44033;-23
2021/04/03 17:45:28;;;;;;;1.62;0.98;;;;;;;7.85;43.33;98853.95;3761712;77;43670;-23
2021/04/03 17:50:34;;;;;;;2.13;0.93;;;;;;;7.63;43.30;98861.18;3760241;77;42815;-23
2021/04/03 17:55:40;;;;;;;3.05;1.00;;;;;;;7.45;43.55;98860.08;3762200;79;43713;-23
2021/04/03 18:00:48;;;;;;;3.22;1.05;;;;;;;7.35;44.39;98870.73;3759395;79;44133;-23
2021/04/03 18:05:55;;;;;;;1.30;0.90;;;;;;;7.18;43.77;98878.84;3757803;79;44673;-24
2021/04/03 18:11:02;;;;;;;2.85;0.88;;;;;;;7.03;45.39;98878.30;3739862;79;43479;-24
2021/04/03 18:16:08;;;;;;;1.55;1.00;;;;;;;6.65;46.75;98878.28;3737816;79;43739;-22
2021/04/03 18:21:14;;;;;;;2.43;1.13;;;;;;;6.43;47.41;98888.89;3737865;78;43262;-21
2021/04/03 18:26:21;;;;;;;2.17;1.40;;;;;;;6.23;47.89;98884.30;3735727;79;43493;-21
2021/04/03 18:31:27;;;;;;;1.22;1.05;;;;;;;5.98;47.60;98891.08;3738542;79;43717;-22
2021/04/03 18:36:33;;;;;;;5.05;1.20;;;;;;;5.91;48.59;98901.03;3733389;79;43710;-23
2021/04/03 18:41:40;;;;;;;1.37;1.00;;;;;;;5.86;48.12;98911.59;3735444;79;43059;-22
2021/04/03 18:46:46;;;;;;;4.45;1.42;;;;;;;5.77;48.56;98919.00;3736069;78;44062;-24
2021/04/03 18:51:53;;;;;;;5.17;1.60;;;;;;;5.68;48.40;98925.89;3738103;78;44712;-24
2021/04/03 18:57:00;;;;;;;2.30;1.50;;;;;;;5.61;48.90;98923.80;3736563;78;73262;-24
2021/04/03 19:02:06;;;;;;;3.92;1.75;;;;;;;5.56;49.13;98941.53;3734021;78;44024;-25
2021/04/03 19:07:12;;;;;;;2.62;1.40;;;;;;;5.48;49.82;98939.44;3737789;78;43726;-23
2021/04/03 19:12:18;;;;;;;1.10;1.00;;;;;;;5.33;50.47;98940.11;3756284;78;43728;-23
2021/04/03 19:17:25;;;;;;;1.57;1.20;;;;;;;5.11;51.40;98938.67;3755386;79;73225;-26
2021/04/03 19:22:33;;;;;;;3.63;1.47;;;;;;;4.75;52.30;98940.78;3760144;79;43345;-22
2021/04/03 19:27:39;;;;;;;3.03;1.30;;;;;;;4.72;52.93;98946.34;3760741;77;43709;-22
2021/04/03 19:32:45;;;;;;;1.50;1.00;;;;;;;4.49;53.73;98953.34;3758822;77;44002;-22
2021/04/03 19:37:51;;;;;;;1.77;1.20;;;;;;;4.39;54.25;98953.13;3762455;79;43305;-24
2021/04/03 19:43:00;;;;;;;1.85;1.10;;;;;;;4.44;53.28;98955.01;3760610;78;73660;-23
2021/04/03 19:48:07;;;;;;;2.80;1.40;;;;;;;4.46;53.28;98958.42;3759175;79;43515;-23
2021/04/03 19:53:13;;;;;;;1.50;1.00;;;;;;;4.46;53.35;98953.55;3762436;79;43007;-23
2021/04/03 19:58:20;;;;;;;2.02;1.20;;;;;;;4.39;52.97;98954.97;3754379;77;73684;-23
2021/04/03 20:03:26;;;;;;;5.40;1.57;;;;;;;4.31;52.56;98957.67;3765154;77;73573;-24
2021/04/03 20:08:33;;;;;;;2.53;1.60;;;;;;;4.22;54.02;98956.99;3745578;77;44049;-23
2021/04/03 20:13:38;;;;;;;2.47;1.20;;;;;;;4.19;53.86;98953.20;3741959;78;43436;-23
2021/04/03 20:18:44;;;;;;;1.93;1.17;;;;;;;4.12;53.52;98957.27;3744724;79;43627;-23
2021/04/03 20:23:50;;;;;;;2.57;1.20;;;;;;;4.08;53.13;98956.64;3757056;79;73688;-25
2021/04/03 20:28:56;;;;;;;3.13;1.07;;;;;;;4.12;52.13;98948.77;3762455;77;43107;-25
2021/04/03 20:34:02;;;;;;;1.93;1.07;;;;;;;4.24;51.39;98952.41;3762424;79;44085;-26
2021/04/03 20:39:09;;;;;;;3.43;1.03;;;;;;;4.34;50.68;98954.42;3757942;77;44049;-24
2021/04/03 20:44:15;;;;;;;1.35;1.00;;;;;;;4.32;51.35;98961.21;3759800;77;73374;-24
2021/04/03 20:49:20;;;;;;;2.53;1.10;;;;;;;4.31;50.90;98959.01;3758790;79;43693;-25
2021/04/03 20:54:26;;;;;;;2.33;1.50;;;;;;;4.28;51.35;98965.91;3761593;79;73309;-24
2021/04/03 20:59:32;;;;;;;2.93;1.10;;;;;;;4.20;51.52;98964.73;3762561;77;44111;-25
2021/04/03 21:04:37;;;;;;;2.07;1.20;;;;;;;4.20;50.66;98959.41;3760822;79;73237;-25
2021/04/03 21:09:43;;;;;;;3.72;1.30;;;;;;;4.14;50.64;98966.86;3757221;78;73662;-23
2021/04/03 21:14:49;;;;;;;2.50;1.23;;;;;;;4.22;51.01;98956.16;3736344;78;44066;-24
2021/04/03 21:19:55;;;;;;;2.93;1.20;;;;;;;4.21;51.35;98962.45;3736320;78;44094;-24
2021/04/03 21:25:01;;;;;;;1.20;1.10;;;;;;;4.28;51.30;98965.05;3736967;79;43644;-25
2021/04/03 21:30:09;;;;;;;1.30;1.00;;;;;;;4.35;51.29;98967.64;3735988;79;43684;-25
2021/04/03 21:35:15;;;;;;;4.30;1.70;;;;;;;4.42;50.50;98973.39;3738079;78;43402;-25
2021/04/03 21:40:21;;;;;;;1.77;1.20;;;;;;;4.40;51.12;98983.34;3738212;79;44542;-25
2021/04/03 21:45:30;;;;;;;2.33;1.10;;;;;;;4.40;51.36;98984.69;3738326;79;43483;-25
2021/04/03 21:50:35;;;;;;;3.73;1.20;;;;;;;4.27;52.01;98984.67;3736800;78;43639;-25
2021/04/03 21:55:41;;;;;;;3.67;2.00;;;;;;;4.13;51.95;98983.81;3734343;78;43566;-25
2021/04/03 22:00:50;;;;;;;3.03;2.17;;;;;;;3.91;55.16;98990.25;3738264;78;43713;-25
2021/04/03 22:05:56;;;;;;;4.20;2.63;;;;;;;3.74;57.51;98999.40;3737149;79;73316;-25
2021/04/03 22:11:04;;;;;;;8.83;5.67;;;;;;;3.45;58.70;98991.56;3734889;78;43385;-25
2021/04/03 22:16:09;;;;;;;5.00;2.63;;;;;;;3.20;61.09;98999.34;3737298;79;43369;-25
2021/04/03 22:21:16;;;;;;;4.10;2.80;;;;;;;3.06;61.40;98998.05;3737128;78;44276;-25
2021/04/03 22:26:22;;;;;;;3.53;2.53;;;;;;;2.99;61.46;99002.94;3738100;78;43046;-25
2021/04/03 22:31:28;;;;;;;3.90;2.27;;;;;;;2.95;61.62;99001.42;3738021;78;43318;-25
2021/04/03 22:36:34;;;;;;;3.50;1.90;;;;;;;2.94;61.20;99003.70;3738509;79;44013;-25
2021/04/03 22:41:40;;;;;;;3.10;1.90;;;;;;;2.85;60.99;98998.48;3738360;79;43725;-25
2021/04/03 22:46:46;;;;;;;2.63;2.03;;;;;;;2.83;60.78;99000.38;3738047;78;44888;-25
2021/04/03 22:51:51;;;;;;;4.10;2.20;;;;;;;2.83;61.36;99008.37;3738137;79;42903;-25
2021/04/03 22:56:57;;;;;;;3.73;2.07;;;;;;;2.77;61.05;99001.63;3735739;78;43997;-25
2021/04/03 23:02:03;;;;;;;3.57;2.10;;;;;;;2.72;61.85;98994.43;3737586;78;43710;-25
2021/04/03 23:07:10;;;;;;;3.07;1.90;;;;;;;2.67;62.99;99000.51;3738368;79;44641;-25
2021/04/03 23:12:16;;;;;;;4.57;1.73;;;;;;;2.52;62.92;98999.67;3738239;78;44110;-25
2021/04/03 23:17:23;;;;;;;4.40;1.83;;;;;;;2.49;63.46;99001.67;3738314;79;43381;-25
2021/04/03 23:22:29;;;;;;;4.97;2.20;;;;;;;2.43;63.86;99006.41;3738034;79;44053;-25
2021/04/03 23:27:35;;;;;;;4.87;2.20;;;;;;;2.31;65.19;99012.48;3737065;78;43651;-25
2021/04/03 23:32:41;;;;;;;3.00;2.20;;;;;;;2.25;66.57;99008.89;3740132;78;43036;-25
2021/04/03 23:37:48;;;;;;;3.50;2.00;;;;;;;2.20;67.66;99008.30;3737881;78;43345;-25
2021/04/03 23:42:53;;;;;;;3.70;1.90;;;;;;;2.18;68.52;99007.53;3738134;79;42862;-25
2021/04/03 23:47:59;;;;;;;3.00;2.20;;;;;;;2.10;69.18;99002.71;3738254;79;44185;-25
2021/04/03 23:53:05;;;;;;;3.00;2.00;;;;;;;2.13;71.67;98994.52;3738195;79;44131;-25
2021/04/03 23:58:11;;;;;;;3.93;1.73;;;;;;;2.13;71.54;98996.73;3738271;79;44523;-25
